Time;durP1;ratioP1;P1;durP2;ratioP2;P2;SDS_P1;SDS_P2;PMS_P1;PMS_P2;Temp;Humidity;BMP_temperature;BMP_pressure;BME280_temperature;BME280_humidity;BME280_pressure;Samples;Min_cycle;Max_cycle;Signal;HPM_P1;HPM_P2
2021/07/23 00:00:15;;;;;;;6.15;2.60;;;24.30;75.90;;;;;;1924552;74;21543;-54
2021/07/23 00:02:45;;;;;;;3.70;2.95;;;24.40;75.70;;;;;;1924581;74;21092;-54
2021/07/23 00:05:14;;;;;;;6.42;3.70;;;24.50;75.50;;;;;;1924577;74;20998;-54
2021/07/23 00:07:44;;;;;;;5.95;2.90;;;24.50;74.80;;;;;;1924565;74;21084;-54
2021/07/23 00:10:13;;;;;;;8.43;2.58;;;24.50;74.30;;;;;;1924611;74;21034;-51
2021/07/23 00:12:42;;;;;;;6.15;3.10;;;24.40;74.50;;;;;;1924660;74;21127;-54
2021/07/23 00:15:12;;;;;;;5.75;3.47;;;24.50;74.70;;;;;;1924444;74;21042;-54
2021/07/23 00:17:41;;;;;;;3.98;2.35;;;24.50;74.70;;;;;;1924734;74;21088;-54
2021/07/23 00:20:11;;;;;;;4.67;3.05;;;24.50;74.80;;;;;;1924531;74;21088;-54
2021/07/23 00:22:41;;;;;;;7.55;2.98;;;24.60;74.80;;;;;;1924555;74;21097;-55
2021/07/23 00:25:11;;;;;;;7.35;2.72;;;24.60;74.60;;;;;;1924678;74;21034;-54
2021/07/23 00:27:40;;;;;;;4.80;2.87;;;24.60;74.60;;;;;;1924575;74;21018;-54
2021/07/23 00:30:10;;;;;;;3.80;2.37;;;24.60;74.70;;;;;;1924540;74;21080;-54
2021/07/23 00:32:41;;;;;;;3.47;2.80;;;24.60;74.80;;;;;;1924655;74;21110;-54
2021/07/23 00:35:10;;;;;;;4.05;2.83;;;24.60;75.20;;;;;;1924564;74;21023;-54
2021/07/23 00:37:40;;;;;;;4.30;3.00;;;24.60;75.40;;;;;;1924647;74;21023;-54
2021/07/23 00:40:11;;;;;;;4.30;2.62;;;24.60;75.40;;;;;;1924521;74;21014;-55
2021/07/23 00:42:42;;;;;;;5.30;3.00;;;24.70;75.40;;;;;;1924556;74;21022;-54
2021/07/23 00:45:12;;;;;;;4.65;2.77;;;24.70;75.10;;;;;;1924559;74;21026;-54
2021/07/23 00:47:45;;;;;;;5.08;2.92;;;24.80;75.10;;;;;;1924916;74;21104;-54
2021/07/23 00:50:14;;;;;;;7.33;2.45;;;24.80;75.00;;;;;;1924714;74;21022;-54
2021/07/23 00:52:44;;;;;;;6.28;3.47;;;24.80;75.10;;;;;;1924663;74;21084;-54
2021/07/23 00:55:14;;;;;;;6.20;3.15;;;24.80;75.00;;;;;;1924705;74;21003;-54
2021/07/23 00:57:45;;;;;;;7.55;3.00;;;24.80;75.00;;;;;;1924679;74;21026;-54
2021/07/23 01:00:15;;;;;;;4.37;2.85;;;24.70;75.20;;;;;;1924714;74;21015;-54
2021/07/23 01:02:49;;;;;;;7.35;3.10;;;24.60;75.10;;;;;;1923729;74;21071;-54
2021/07/23 01:05:19;;;;;;;3.45;3.15;;;24.60;74.80;;;;;;1924670;74;21481;-54
2021/07/23 01:07:49;;;;;;;5.45;2.98;;;24.40;75.00;;;;;;1924706;74;21018;-54
2021/07/23 01:10:18;;;;;;;4.03;2.80;;;24.30;75.40;;;;;;1924570;74;21104;-54
2021/07/23 01:13:02;;;;;;;5.87;2.85;;;24.30;75.50;;;;;;1920270;74;21085;-54
2021/07/23 01:15:31;;;;;;;6.20;3.20;;;24.30;75.60;;;;;;1910114;74;21044;-54
2021/07/23 01:18:01;;;;;;;7.05;2.70;;;24.30;75.50;;;;;;1905273;75;21494;-55
2021/07/23 01:20:31;;;;;;;4.20;2.62;;;24.30;75.40;;;;;;1905252;75;21023;-54
2021/07/23 01:23:02;;;;;;;8.85;3.92;;;24.30;75.50;;;;;;1905382;75;21012;-54
2021/07/23 01:25:34;;;;;;;4.50;3.00;;;24.30;75.60;;;;;;1905257;75;21055;-54
2021/07/23 01:28:05;;;;;;;5.10;2.58;;;24.30;75.70;;;;;;1905371;74;21067;-54
2021/07/23 01:30:39;;;;;;;4.78;2.83;;;24.30;75.60;;;;;;1904927;74;21050;-54
2021/07/23 01:33:16;;;;;;;4.97;3.02;;;24.30;75.70;;;;;;1905087;74;21243;-54
2021/07/23 01:35:46;;;;;;;3.70;2.65;;;24.40;75.90;;;;;;1905337;74;21545;-54
2021/07/23 01:38:17;;;;;;;3.60;2.40;;;24.40;76.10;;;;;;1905265;75;21024;-54
2021/07/23 01:40:46;;;;;;;5.60;2.80;;;24.40;76.70;;;;;;1905397;75;21023;-53
2021/07/23 01:43:16;;;;;;;7.58;3.22;;;24.50;76.10;;;;;;1905476;75;21023;-54
2021/07/23 01:45:46;;;;;;;7.33;3.77;;;24.50;76.00;;;;;;1905368;74;21090;-54
2021/07/23 01:48:33;;;;;;;4.20;2.95;;;24.50;76.00;;;;;;1905256;74;21099;-53
2021/07/23 01:51:04;;;;;;;5.40;3.05;;;24.50;75.90;;;;;;1905258;74;21085;-54
2021/07/23 01:53:34;;;;;;;6.25;3.30;;;24.50;75.80;;;;;;1905374;74;21113;-54
2021/07/23 01:56:04;;;;;;;7.90;2.35;;;24.50;75.80;;;;;;1905235;75;21099;-52
2021/07/23 01:58:34;;;;;;;6.47;2.83;;;24.40;75.90;;;;;;1905315;74;21011;-53
2021/07/23 02:01:05;;;;;;;7.12;2.50;;;24.40;75.90;;;;;;1905340;74;21039;-54
2021/07/23 02:03:35;;;;;;;4.95;2.85;;;24.30;76.00;;;;;;1905216;75;21020;-54
2021/07/23 02:06:04;;;;;;;10.40;3.83;;;24.30;76.30;;;;;;1905275;75;21007;-53
2021/07/23 02:08:34;;;;;;;4.50;2.75;;;24.20;76.50;;;;;;1905223;74;21043;-54
2021/07/23 02:11:05;;;;;;;5.97;3.52;;;24.20;76.50;;;;;;1905193;75;21571;-54
2021/07/23 02:13:35;;;;;;;5.55;3.08;;;24.20;76.40;;;;;;1892416;75;21031;-54
2021/07/23 02:16:06;;;;;;;6.55;3.12;;;24.20;76.20;;;;;;1905261;74;21047;-54
2021/07/23 02:18:36;;;;;;;8.48;3.70;;;24.20;76.10;;;;;;1905257;75;21023;-54
2021/07/23 02:21:07;;;;;;;6.83;4.08;;;24.20;76.00;;;;;;1905066;74;21067;-54
2021/07/23 02:23:37;;;;;;;6.15;4.15;;;24.10;76.10;;;;;;1905207;75;21081;-54
2021/07/23 02:26:21;;;;;;;6.95;3.80;;;24.10;76.10;;;;;;1905340;75;21085;-54
2021/07/23 02:28:51;;;;;;;4.85;3.67;;;24.00;76.10;;;;;;1892515;75;21144;-54
2021/07/23 02:31:21;;;;;;;3.45;3.15;;;23.90;76.30;;;;;;1905325;74;21081;-54
2021/07/23 02:33:51;;;;;;;7.75;3.58;;;24.00;76.50;;;;;;1900912;75;21008;-54
2021/07/23 02:36:22;;;;;;;4.53;2.95;;;24.00;76.40;;;;;;1904467;74;21473;-54
2021/07/23 02:38:52;;;;;;;5.33;2.80;;;24.10;76.40;;;;;;1905363;75;21023;-54
2021/07/23 02:41:21;;;;;;;7.37;3.50;;;24.10;76.50;;;;;;1905324;75;21028;-54
2021/07/23 02:43:52;;;;;;;6.62;3.37;;;24.20;76.50;;;;;;1904890;74;21079;-54
2021/07/23 02:46:22;;;;;;;7.00;3.33;;;24.40;76.30;;;;;;1905372;75;20999;-54
2021/07/23 02:48:52;;;;;;;5.25;3.17;;;24.60;75.90;;;;;;1905167;75;21028;-54
2021/07/23 02:51:23;;;;;;;5.10;3.10;;;24.70;75.40;;;;;;1905429;75;21564;-54
2021/07/23 02:53:53;;;;;;;5.20;3.75;;;24.80;75.10;;;;;;1905300;75;21091;-54
2021/07/23 02:56:23;;;;;;;5.40;3.40;;;24.80;75.10;;;;;;1905220;75;21083;-55
2021/07/23 02:58:53;;;;;;;9.08;4.20;;;24.90;75.10;;;;;;1905315;75;21054;-54
2021/07/23 03:01:22;;;;;;;7.15;3.83;;;24.80;75.00;;;;;;1905198;75;21453;-54
2021/07/23 03:03:52;;;;;;;8.35;3.77;;;24.90;75.10;;;;;;1905364;75;21093;-54
2021/07/23 03:06:22;;;;;;;6.83;3.60;;;24.90;75.00;;;;;;1892274;75;21012;-54
2021/07/23 03:08:51;;;;;;;6.33;3.65;;;24.90;74.70;;;;;;1905100;75;21027;-54
2021/07/23 03:11:22;;;;;;;6.70;3.85;;;24.80;74.30;;;;;;1905165;74;21078;-54
2021/07/23 03:13:56;;;;;;;6.80;4.08;;;24.70;74.30;;;;;;1904725;74;21097;-54
2021/07/23 03:16:25;;;;;;;12.40;5.58;;;24.60;74.20;;;;;;1905234;74;21031;-54
2021/07/23 03:18:55;;;;;;;8.43;5.42;;;24.50;74.60;;;;;;1905195;74;21000;-54
2021/07/23 03:21:25;;;;;;;10.68;6.42;;;24.40;74.80;;;;;;1905137;74;21027;-55
2021/07/23 03:23:55;;;;;;;8.10;5.70;;;24.30;75.10;;;;;;1905253;74;21020;-54
2021/07/23 03:26:25;;;;;;;12.35;5.55;;;24.20;75.40;;;;;;1905381;74;21027;-54
2021/07/23 03:28:55;;;;;;;10.48;5.25;;;24.10;75.70;;;;;;1905179;74;21531;-54
2021/07/23 03:31:28;;;;;;;12.15;5.47;;;24.00;76.10;;;;;;1904800;74;21481;-54
2021/07/23 03:34:11;;;;;;;11.57;6.72;;;23.90;76.50;;;;;;1904833;74;21039;-54
2021/07/23 03:37:00;;;;;;;13.22;7.22;;;23.90;76.80;;;;;;1905113;74;21079;-54
2021/07/23 03:39:31;;;;;;;20.02;13.18;;;23.80;77.10;;;;;;1903113;74;21047;-54
2021/07/23 03:42:02;;;;;;;23.40;11.25;;;23.70;77.80;;;;;;1905158;75;21023;-54
2021/07/23 03:44:33;;;;;;;18.45;11.18;;;23.60;78.20;;;;;;1905030;74;21058;-54
2021/07/23 03:47:04;;;;;;;25.17;11.65;;;23.50;78.70;;;;;;1905240;74;21099;-54
2021/07/23 03:49:35;;;;;;;14.10;9.43;;;23.50;79.10;;;;;;1904990;75;21014;-54
2021/07/23 03:52:05;;;;;;;16.23;8.38;;;23.40;79.30;;;;;;1905321;75;21085;-54
2021/07/23 03:54:36;;;;;;;13.20;7.47;;;23.40;79.70;;;;;;1904828;74;21015;-54
2021/07/23 03:57:07;;;;;;;13.38;7.47;;;23.40;79.60;;;;;;1905390;75;21470;-54
2021/07/23 03:59:37;;;;;;;13.93;7.55;;;23.40;79.60;;;;;;1905406;75;21105;-54
2021/07/23 04:02:07;;;;;;;12.85;7.65;;;23.50;79.60;;;;;;1905335;74;21023;-54
2021/07/23 04:04:38;;;;;;;12.85;6.92;;;23.50;79.50;;;;;;1905226;75;21065;-54
2021/07/23 04:07:08;;;;;;;11.48;7.22;;;23.60;79.80;;;;;;1905202;75;21035;-54
2021/07/23 04:09:39;;;;;;;10.68;6.17;;;23.60;79.70;;;;;;1905311;74;21027;-55
2021/07/23 04:12:09;;;;;;;14.35;7.42;;;23.70;79.60;;;;;;1905356;75;21499;-54
2021/07/23 04:14:40;;;;;;;14.80;7.62;;;23.80;79.60;;;;;;1905151;74;21583;-54
2021/07/23 04:17:10;;;;;;;13.32;6.50;;;23.90;79.40;;;;;;1918792;74;21050;-54
2021/07/23 04:19:41;;;;;;;13.70;6.70;;;24.10;79.10;;;;;;1924701;74;21027;-54
2021/07/23 04:22:10;;;;;;;16.97;7.22;;;24.20;79.00;;;;;;1924552;74;21038;-54
2021/07/23 04:24:44;;;;;;;11.50;6.20;;;24.30;78.60;;;;;;1924526;74;21183;-54
2021/07/23 04:27:14;;;;;;;9.23;5.70;;;24.50;78.20;;;;;;1924734;74;21131;-54
2021/07/23 04:29:47;;;;;;;11.05;5.65;;;24.60;77.80;;;;;;1923252;74;21136;-54
2021/07/23 04:32:16;;;;;;;11.10;5.72;;;24.70;77.60;;;;;;1904130;74;21120;-54
2021/07/23 04:34:46;;;;;;;10.60;5.30;;;24.80;77.20;;;;;;1924738;74;20998;-54
2021/07/23 04:37:17;;;;;;;12.33;6.10;;;24.70;77.00;;;;;;1924670;73;21026;-54
2021/07/23 04:40:06;;;;;;;10.85;5.70;;;24.70;77.20;;;;;;1920572;74;21088;-55
2021/07/23 04:42:36;;;;;;;10.38;4.60;;;24.70;77.30;;;;;;1924710;74;21499;-54
2021/07/23 04:45:06;;;;;;;13.08;5.80;;;24.80;77.30;;;;;;1924844;74;20995;-55
2021/07/23 04:47:37;;;;;;;7.67;4.70;;;24.90;77.10;;;;;;1924488;74;21046;-54
2021/07/23 04:50:09;;;;;;;10.08;4.78;;;25.10;76.50;;;;;;1924674;74;21103;-54
2021/07/23 04:52:59;;;;;;;7.85;5.15;;;25.20;75.90;;;;;;1924656;74;21034;-54
2021/07/23 04:55:50;;;;;;;12.70;4.92;;;25.10;75.70;;;;;;1914544;75;21057;-54
2021/07/23 04:58:17;;;;;;;13.25;6.35;;;25.00;75.60;;;;;;1920964;74;21136;-56
2021/07/23 05:00:46;;;;;;;10.45;4.80;;;24.90;75.60;;;;;;1924762;74;21019;-57
2021/07/23 05:03:16;;;;;;;19.37;17.15;;;24.90;75.70;;;;;;1924648;74;21015;-54
2021/07/23 05:05:46;;;;;;;9.83;7.00;;;25.00;75.80;;;;;;1924598;74;21104;-55
2021/07/23 05:08:16;;;;;;;11.38;8.75;;;25.00;75.70;;;;;;1924636;74;21075;-54
2021/07/23 05:10:46;;;;;;;7.97;4.47;;;25.10;75.80;;;;;;1924626;74;21003;-54
2021/07/23 05:13:15;;;;;;;10.25;6.50;;;25.10;75.30;;;;;;1924568;74;21002;-54
2021/07/23 05:15:45;;;;;;;9.08;7.70;;;25.10;75.10;;;;;;1924602;74;21163;-55
2021/07/23 05:18:15;;;;;;;11.75;4.95;;;25.10;75.30;;;;;;1907188;74;21219;-54
2021/07/23 05:20:45;;;;;;;12.03;8.25;;;25.10;75.70;;;;;;1905191;75;21066;-55
2021/07/23 05:23:15;;;;;;;17.15;13.20;;;25.20;75.40;;;;;;1905138;75;21120;-54
2021/07/23 05:25:44;;;;;;;8.03;5.67;;;25.20;75.10;;;;;;1905243;75;21055;-54
2021/07/23 05:28:13;;;;;;;7.83;4.95;;;25.30;74.90;;;;;;1905233;74;21020;-54
2021/07/23 05:30:43;;;;;;;11.95;5.72;;;25.30;74.40;;;;;;1905189;75;21097;-54
2021/07/23 05:33:12;;;;;;;8.88;4.70;;;25.30;74.60;;;;;;1905174;75;21019;-54
2021/07/23 05:35:41;;;;;;;8.18;4.60;;;25.40;74.10;;;;;;1905325;75;21085;-54
2021/07/23 05:38:17;;;;;;;7.12;5.47;;;25.60;73.80;;;;;;1905243;75;21000;-56
2021/07/23 05:40:46;;;;;;;10.50;5.03;;;25.70;73.20;;;;;;1905384;74;21085;-54
2021/07/23 05:43:17;;;;;;;11.93;4.17;;;25.80;72.30;;;;;;1905301;74;21043;-54
2021/07/23 05:45:46;;;;;;;6.90;4.78;;;25.90;72.20;;;;;;1905212;74;21073;-54
2021/07/23 05:48:15;;;;;;;8.25;4.53;;;25.90;72.00;;;;;;1905196;74;21027;-54
2021/07/23 05:50:45;;;;;;;8.90;4.78;;;26.00;72.10;;;;;;1905338;75;21532;-54
2021/07/23 05:53:14;;;;;;;5.55;4.65;;;25.90;71.70;;;;;;1905085;75;21128;-54
2021/07/23 05:55:44;;;;;;;22.90;15.38;;;25.80;72.20;;;;;;1905355;74;21144;-54
2021/07/23 05:58:13;;;;;;;169.87;56.60;;;25.70;71.70;;;;;;1905262;75;21015;-54
2021/07/23 06:00:44;;;;;;;8.50;5.67;;;25.60;72.00;;;;;;1905368;75;21019;-54
2021/07/23 06:03:13;;;;;;;7.70;4.70;;;25.60;72.20;;;;;;1905245;75;21090;-54
2021/07/23 06:05:44;;;;;;;8.20;5.30;;;25.60;72.20;;;;;;1905322;74;21032;-54
2021/07/23 06:08:13;;;;;;;6.47;4.75;;;25.60;72.20;;;;;;1905197;75;21019;-54
2021/07/23 06:10:43;;;;;;;8.78;4.90;;;25.70;72.50;;;;;;1905302;75;21089;-54
2021/07/23 06:13:12;;;;;;;27.62;13.00;;;25.90;72.60;;;;;;1905177;75;21016;-54
2021/07/23 06:15:42;;;;;;;6.40;4.70;;;26.20;71.90;;;;;;1905215;75;21015;-54
2021/07/23 06:18:11;;;;;;;10.60;4.95;;;26.30;71.40;;;;;;1917396;74;21039;-54
2021/07/23 06:20:42;;;;;;;8.25;4.97;;;26.30;70.80;;;;;;1924538;74;21062;-54
2021/07/23 06:23:11;;;;;;;10.05;5.30;;;26.20;70.90;;;;;;1924693;74;21047;-54
2021/07/23 06:25:41;;;;;;;9.10;5.10;;;26.10;70.70;;;;;;1924690;74;21022;-54
2021/07/23 06:28:10;;;;;;;7.80;5.33;;;26.00;71.00;;;;;;1924671;74;21022;-54
2021/07/23 14:21:50;;;;;;;15.18;12.60;;;29.70;45.60;;;;;;1924275;74;28004;-52
2021/07/23 14:24:19;;;;;;;13.10;6.42;;;30.00;44.50;;;;;;1849476;77;21418;-51
2021/07/23 14:26:49;;;;;;;7.90;3.27;;;30.00;44.50;;;;;;1849657;76;21009;-52
2021/07/23 14:29:18;;;;;;;6.17;3.55;;;29.90;44.50;;;;;;1849459;76;21033;-51
2021/07/23 14:31:47;;;;;;;5.47;3.80;;;29.80;44.80;;;;;;1849482;76;21514;-51
2021/07/23 14:34:17;;;;;;;5.87;4.08;;;29.70;45.00;;;;;;1849454;76;21091;-52
2021/07/23 14:36:46;;;;;;;3.65;2.80;;;29.70;45.40;;;;;;1849560;76;21553;-54
2021/07/23 14:39:16;;;;;;;4.28;3.00;;;29.70;45.30;;;;;;1849401;77;21037;-52
2021/07/23 14:41:45;;;;;;;4.65;3.22;;;29.80;45.40;;;;;;1849495;76;21099;-53
2021/07/23 14:44:15;;;;;;;4.10;2.70;;;29.80;45.30;;;;;;1849446;76;21093;-53
2021/07/23 14:46:44;;;;;;;7.90;3.37;;;29.70;45.60;;;;;;1849437;77;21022;-53
2021/07/23 14:49:16;;;;;;;7.90;3.35;;;29.70;46.20;;;;;;1849522;76;21027;-53
2021/07/23 14:51:45;;;;;;;11.15;9.25;;;29.70;46.30;;;;;;1849457;76;21029;-53
2021/07/23 14:54:15;;;;;;;5.70;3.10;;;29.60;46.70;;;;;;1849427;77;21022;-52
2021/07/23 14:56:44;;;;;;;6.95;3.22;;;29.60;46.90;;;;;;1849492;77;21029;-53
2021/07/23 14:59:14;;;;;;;8.73;3.50;;;29.60;47.10;;;;;;1849354;76;21034;-53
2021/07/23 15:01:43;;;;;;;6.75;2.90;;;29.70;47.30;;;;;;1849413;76;21452;-53
2021/07/23 15:04:12;;;;;;;6.22;3.33;;;29.70;47.50;;;;;;1849421;77;21079;-52
2021/07/23 15:06:42;;;;;;;5.30;3.37;;;29.60;47.60;;;;;;1849464;77;21100;-53
2021/07/23 15:09:11;;;;;;;4.80;3.50;;;29.50;47.50;;;;;;1849458;77;21057;-52
2021/07/23 15:11:40;;;;;;;8.73;3.58;;;29.40;47.90;;;;;;1849513;76;21013;-52
2021/07/23 15:14:10;;;;;;;6.12;3.60;;;29.30;48.00;;;;;;1849563;76;21128;-53
2021/07/23 15:16:39;;;;;;;4.62;3.90;;;29.30;48.30;;;;;;1849538;77;21100;-53
2021/07/23 15:19:20;;;;;;;7.95;4.97;;;29.20;48.50;;;;;;1849534;76;21038;-53
2021/07/23 15:21:41;;;;;;;5.37;3.80;;;29.10;48.80;;;;;;1839112;77;21669;-54
2021/07/23 15:24:10;;;;;;;7.75;3.72;;;29.00;49.20;;;;;;1837298;77;21083;-54
2021/07/23 15:26:39;;;;;;;12.78;4.00;;;28.90;49.30;;;;;;1837326;76;21120;-54
2021/07/23 15:29:09;;;;;;;7.28;4.55;;;28.90;49.50;;;;;;1837279;77;21100;-54
2021/07/23 15:31:38;;;;;;;6.53;4.05;;;28.90;49.70;;;;;;1837252;77;21095;-55
2021/07/23 15:34:08;;;;;;;4.33;3.85;;;28.90;49.70;;;;;;1837305;78;21100;-54
2021/07/23 15:36:37;;;;;;;7.67;4.17;;;28.90;49.90;;;;;;1837351;78;21034;-54
2021/07/23 15:39:07;;;;;;;6.30;3.98;;;28.90;50.00;;;;;;1837244;76;21034;-54
2021/07/23 15:41:37;;;;;;;6.47;3.45;;;28.90;50.00;;;;;;1837383;76;21135;-55
2021/07/23 15:44:08;;;;;;;7.30;3.75;;;28.80;50.30;;;;;;1837495;77;21136;-54
2021/07/23 15:46:37;;;;;;;9.13;4.05;;;28.80;50.30;;;;;;1837458;77;21022;-54
2021/07/23 15:49:06;;;;;;;6.95;5.10;;;28.70;50.30;;;;;;1837534;77;21100;-54
2021/07/23 15:51:36;;;;;;;12.80;6.15;;;28.70;50.80;;;;;;1837467;77;21038;-54
2021/07/23 15:54:06;;;;;;;10.75;4.95;;;28.60;50.80;;;;;;1837315;78;21096;-54
2021/07/23 15:56:35;;;;;;;8.33;6.30;;;28.60;50.80;;;;;;1837455;78;21034;-54
2021/07/23 15:59:06;;;;;;;9.40;5.08;;;28.60;50.80;;;;;;1837300;78;21038;-54
2021/07/23 16:01:37;;;;;;;8.00;4.33;;;28.60;51.20;;;;;;1837437;78;21042;-54
2021/07/23 16:04:06;;;;;;;9.40;4.10;;;28.60;51.10;;;;;;1837290;77;21003;-55
2021/07/23 16:06:35;;;;;;;9.18;5.10;;;28.70;51.00;;;;;;1837371;78;21025;-54
2021/07/23 16:09:05;;;;;;;7.75;5.10;;;28.70;50.60;;;;;;1837443;77;21096;-54
2021/07/23 16:11:34;;;;;;;5.33;4.50;;;28.70;50.50;;;;;;1837495;78;21112;-54
2021/07/23 16:14:04;;;;;;;8.98;5.33;;;28.70;52.10;;;;;;1837502;76;21542;-54
2021/07/23 16:16:33;;;;;;;7.85;4.33;;;28.70;51.60;;;;;;1837409;77;21066;-54
2021/07/23 16:19:03;;;;;;;6.87;3.95;;;28.70;51.10;;;;;;1837498;78;21033;-55
2021/07/23 16:21:33;;;;;;;6.33;3.83;;;28.70;51.20;;;;;;1837388;77;21061;-54
2021/07/23 16:24:08;;;;;;;7.90;3.83;;;28.80;50.90;;;;;;1837457;78;21129;-54
2021/07/23 16:26:42;;;;;;;11.10;3.70;;;28.70;50.30;;;;;;1837552;78;21014;-54
2021/07/23 16:29:12;;;;;;;10.58;3.65;;;28.80;50.60;;;;;;1837559;77;21026;-54
2021/07/23 16:31:42;;;;;;;8.88;3.33;;;28.80;50.20;;;;;;1837304;76;21039;-54
2021/07/23 16:34:12;;;;;;;12.82;3.87;;;28.80;49.80;;;;;;1837342;78;21050;-54
2021/07/23 16:36:41;;;;;;;5.85;3.67;;;28.70;50.10;;;;;;1837351;78;21026;-54
2021/07/23 16:39:10;;;;;;;11.00;4.05;;;28.70;50.10;;;;;;1837310;77;21139;-54
2021/07/23 16:41:39;;;;;;;10.23;3.80;;;28.70;50.30;;;;;;1837387;78;21148;-54
2021/07/23 16:44:09;;;;;;;5.72;3.72;;;28.70;50.00;;;;;;1837389;76;21010;-54
2021/07/23 16:46:38;;;;;;;8.18;3.60;;;28.60;50.00;;;;;;1837309;76;21033;-54
2021/07/23 16:49:08;;;;;;;7.87;3.47;;;28.50;50.10;;;;;;1837273;78;21034;-54
2021/07/23 16:51:37;;;;;;;9.33;3.90;;;28.40;50.20;;;;;;1837355;78;21104;-54
2021/07/23 16:54:09;;;;;;;7.12;3.20;;;28.20;50.50;;;;;;1837222;77;21096;-54
2021/07/23 16:56:38;;;;;;;9.70;3.45;;;28.20;51.00;;;;;;1837395;77;21033;-54
2021/07/23 16:59:07;;;;;;;6.17;3.37;;;28.00;51.40;;;;;;1837284;76;21077;-54
2021/07/23 17:01:37;;;;;;;7.90;3.98;;;27.90;51.80;;;;;;1837349;76;21034;-54
2021/07/23 17:04:06;;;;;;;4.25;3.60;;;27.70;52.30;;;;;;1837308;77;21030;-54
2021/07/23 17:06:36;;;;;;;4.92;3.20;;;27.60;52.60;;;;;;1837352;76;21108;-54
2021/07/23 17:09:07;;;;;;;11.78;4.20;;;27.50;53.10;;;;;;1837220;76;21101;-53
2021/07/23 17:11:36;;;;;;;6.85;3.47;;;27.40;53.40;;;;;;1836941;78;21049;-53
2021/07/23 17:14:06;;;;;;;6.42;3.60;;;27.30;53.70;;;;;;1837488;76;21010;-53
2021/07/23 17:16:35;;;;;;;3.42;3.10;;;27.20;54.10;;;;;;1837506;76;21038;-52
2021/07/23 17:19:05;;;;;;;8.30;3.90;;;27.10;54.50;;;;;;1837441;77;21054;-51
2021/07/23 17:21:35;;;;;;;7.05;3.87;;;27.10;54.70;;;;;;1837481;76;21034;-52
2021/07/23 17:24:05;;;;;;;8.65;4.35;;;27.00;54.90;;;;;;1837486;78;21034;-52
2021/07/23 17:26:35;;;;;;;10.68;3.85;;;26.90;55.20;;;;;;1837484;78;21121;-52
2021/07/23 17:29:04;;;;;;;7.28;3.72;;;26.80;55.40;;;;;;1837465;78;21034;-52
2021/07/23 17:31:36;;;;;;;6.05;3.60;;;26.70;55.30;;;;;;1837457;77;21030;-52
2021/07/23 17:34:04;;;;;;;6.15;3.30;;;26.70;55.60;;;;;;1837585;77;21093;-52
2021/07/23 17:36:34;;;;;;;13.50;7.35;;;26.60;55.70;;;;;;1837564;77;21030;-53
2021/07/23 17:39:04;;;;;;;6.78;3.08;;;26.60;55.80;;;;;;1837592;76;21030;-52
2021/07/23 17:41:33;;;;;;;7.25;4.00;;;26.50;55.80;;;;;;1837465;78;21010;-52
2021/07/23 17:44:12;;;;;;;7.80;4.20;;;26.50;55.90;;;;;;1837501;77;21042;-52
2021/07/23 17:46:34;;;;;;;3.98;3.30;;;26.40;56.00;;;;;;1836273;77;21101;-53
2021/07/23 17:49:06;;;;;;;6.45;3.83;;;26.30;56.10;;;;;;1837449;77;21049;-52
2021/07/23 17:51:35;;;;;;;9.10;3.60;;;26.30;56.30;;;;;;1837576;78;21096;-52
2021/07/23 17:54:04;;;;;;;6.67;3.70;;;26.20;56.40;;;;;;1837361;76;21030;-51
2021/07/23 17:56:33;;;;;;;6.00;4.20;;;26.20;56.60;;;;;;1837374;76;21526;-52
2021/07/23 17:59:02;;;;;;;5.62;4.47;;;26.20;56.70;;;;;;1837377;76;21030;-52
2021/07/23 18:01:32;;;;;;;7.47;5.87;;;26.10;56.80;;;;;;1837138;77;21041;-52
2021/07/23 18:04:01;;;;;;;7.37;4.55;;;26.10;57.00;;;;;;1837167;76;21085;-52
2021/07/23 18:06:31;;;;;;;10.65;4.20;;;26.00;57.00;;;;;;1837206;77;21135;-52
2021/07/23 18:09:00;;;;;;;5.87;4.03;;;26.00;57.60;;;;;;1837252;77;21034;-52
2021/07/23 18:11:30;;;;;;;11.30;4.25;;;25.90;57.10;;;;;;1837352;77;21100;-51
2021/07/23 18:13:59;;;;;;;13.15;4.10;;;25.90;57.10;;;;;;1837409;77;21010;-53
2021/07/23 18:16:29;;;;;;;7.00;3.80;;;25.90;57.10;;;;;;1837326;76;21034;-52
2021/07/23 18:18:58;;;;;;;7.45;4.15;;;25.90;57.20;;;;;;1837417;76;21131;-51
2021/07/23 18:21:28;;;;;;;6.75;3.87;;;25.80;57.20;;;;;;1837326;77;21042;-52
2021/07/23 18:23:57;;;;;;;7.65;4.45;;;25.80;57.20;;;;;;1837451;76;21054;-52
2021/07/23 18:26:26;;;;;;;11.75;4.53;;;25.70;57.20;;;;;;1837418;76;21100;-52
2021/07/23 18:28:56;;;;;;;11.00;7.35;;;25.70;57.20;;;;;;1837318;78;21034;-52
2021/07/23 18:31:25;;;;;;;14.78;9.48;;;25.70;57.30;;;;;;1837397;78;21034;-52
2021/07/23 18:33:55;;;;;;;14.15;9.38;;;25.60;57.40;;;;;;1837298;77;21036;-51
2021/07/23 18:36:24;;;;;;;23.45;9.33;;;25.60;57.50;;;;;;1837478;77;21088;-52
2021/07/23 18:38:54;;;;;;;20.27;8.35;;;25.60;57.60;;;;;;1837389;78;21010;-52
2021/07/23 18:41:23;;;;;;;19.60;6.33;;;25.60;57.80;;;;;;1837317;77;21034;-52
2021/07/23 18:43:52;;;;;;;16.40;7.55;;;25.60;57.70;;;;;;1837312;76;21116;-51
2021/07/23 18:46:22;;;;;;;11.63;6.40;;;25.50;57.80;;;;;;1837331;76;21086;-52
2021/07/23 18:48:51;;;;;;;14.58;7.65;;;25.50;58.00;;;;;;1837342;78;21095;-52
2021/07/23 18:51:21;;;;;;;11.90;5.00;;;25.50;58.40;;;;;;1837335;76;21097;-51
2021/07/23 18:53:51;;;;;;;14.40;6.80;;;25.50;58.50;;;;;;1837331;77;21073;-51
2021/07/23 18:56:20;;;;;;;16.30;7.40;;;25.40;58.50;;;;;;1837470;78;21129;-52
2021/07/23 18:58:50;;;;;;;22.73;7.65;;;25.40;58.60;;;;;;1837438;77;21029;-52
2021/07/23 19:01:19;;;;;;;13.70;6.75;;;25.40;58.70;;;;;;1837565;78;21066;-52
2021/07/23 19:03:49;;;;;;;12.90;6.45;;;25.40;59.00;;;;;;1837673;78;21034;-51
2021/07/23 19:06:21;;;;;;;12.65;6.08;;;25.30;59.20;;;;;;1837559;78;21025;-50
2021/07/23 19:08:51;;;;;;;11.12;5.67;;;25.30;59.40;;;;;;1837554;78;21029;-51
2021/07/23 19:11:20;;;;;;;9.10;5.12;;;25.30;59.70;;;;;;1837548;77;21034;-52
2021/07/23 19:13:50;;;;;;;10.13;6.00;;;25.30;59.60;;;;;;1837432;78;20998;-51
2021/07/23 19:16:19;;;;;;;11.68;6.10;;;25.30;59.60;;;;;;1837570;78;21030;-51
2021/07/23 19:18:49;;;;;;;12.78;6.17;;;25.20;59.50;;;;;;1837552;77;21159;-52
2021/07/23 19:21:18;;;;;;;7.65;5.78;;;25.30;59.40;;;;;;1837535;78;21538;-52
2021/07/23 19:23:47;;;;;;;11.65;6.53;;;25.20;59.30;;;;;;1837466;76;21065;-51
2021/07/23 19:26:17;;;;;;;14.23;6.65;;;25.20;59.30;;;;;;1837583;77;21101;-52
2021/07/23 19:28:46;;;;;;;9.93;5.75;;;25.20;59.60;;;;;;1837735;77;21088;-52
2021/07/23 19:31:16;;;;;;;12.70;5.70;;;25.20;59.80;;;;;;1837690;77;21092;-52
2021/07/23 19:33:45;;;;;;;12.00;5.70;;;25.10;60.10;;;;;;1837528;76;21030;-53
2021/07/23 19:36:16;;;;;;;11.20;5.58;;;25.10;60.10;;;;;;1837571;76;21030;-51
2021/07/23 19:38:45;;;;;;;12.78;5.17;;;25.10;60.40;;;;;;1837233;76;21398;-51
2021/07/23 19:41:15;;;;;;;11.43;5.62;;;25.10;60.50;;;;;;1837461;77;21023;-52
2021/07/23 19:43:45;;;;;;;21.00;6.17;;;25.10;60.50;;;;;;1837503;77;21046;-51
2021/07/23 19:46:14;;;;;;;11.35;5.40;;;25.10;60.20;;;;;;1837540;77;21091;-52
2021/07/23 19:48:45;;;;;;;7.33;5.03;;;25.10;60.10;;;;;;1837422;76;21038;-50
2021/07/23 19:51:15;;;;;;;9.90;4.83;;;25.00;60.00;;;;;;1837427;77;21061;-52
2021/07/23 19:53:45;;;;;;;8.35;5.00;;;25.00;60.50;;;;;;1837451;77;21050;-52
2021/07/23 19:56:14;;;;;;;10.08;4.92;;;25.00;60.80;;;;;;1837449;76;21096;-51
2021/07/23 19:58:45;;;;;;;7.58;4.53;;;25.00;61.00;;;;;;1837541;77;21100;-52
2021/07/23 20:01:14;;;;;;;9.98;5.53;;;25.00;60.90;;;;;;1837555;78;21146;-51
2021/07/23 20:03:44;;;;;;;9.78;5.22;;;25.00;60.60;;;;;;1837372;77;21104;-52
2021/07/23 20:06:16;;;;;;;14.18;5.90;;;25.00;60.30;;;;;;1837479;76;21088;-52
2021/07/23 20:08:46;;;;;;;10.98;4.95;;;24.90;60.50;;;;;;1837508;78;21034;-51
2021/07/23 20:11:15;;;;;;;14.30;6.03;;;25.00;60.70;;;;;;1814563;78;21030;-51
2021/07/23 20:13:45;;;;;;;10.13;5.12;;;24.90;60.40;;;;;;1837396;78;21034;-51
2021/07/23 20:16:14;;;;;;;9.08;5.12;;;24.90;60.30;;;;;;1837423;78;21025;-51
2021/07/23 20:18:44;;;;;;;10.70;5.22;;;24.90;60.60;;;;;;1837395;77;21010;-52
2021/07/23 20:21:13;;;;;;;10.28;5.80;;;25.00;60.70;;;;;;1837386;77;21092;-51
2021/07/23 20:23:42;;;;;;;16.60;5.33;;;25.00;60.60;;;;;;1839610;77;21053;-49
2021/07/23 20:26:12;;;;;;;9.33;5.40;;;25.00;60.30;;;;;;1849219;77;21049;-51
2021/07/23 20:28:43;;;;;;;8.48;5.50;;;25.00;60.10;;;;;;1849147;76;21030;-51
2021/07/23 20:31:12;;;;;;;8.03;5.53;;;25.00;59.90;;;;;;1849219;77;21128;-52
2021/07/23 20:33:41;;;;;;;10.93;5.90;;;24.90;60.00;;;;;;1849292;77;21087;-52
2021/07/23 20:36:11;;;;;;;12.73;7.42;;;24.90;60.20;;;;;;1849316;77;21102;-52
2021/07/23 20:38:41;;;;;;;16.00;8.60;;;24.80;59.80;;;;;;1849156;76;21088;-51
2021/07/23 20:41:12;;;;;;;8.83;6.25;;;24.80;59.90;;;;;;1849186;76;21001;-51
2021/07/23 20:43:42;;;;;;;11.28;5.80;;;24.70;60.10;;;;;;1849230;77;21010;-51
2021/07/23 20:46:11;;;;;;;8.25;6.12;;;24.70;60.50;;;;;;1849184;77;21091;-50
2021/07/23 20:48:41;;;;;;;7.83;5.83;;;24.80;60.40;;;;;;1849140;76;21088;-52